Flight Track Log - Related Links

Times and Time Zones

All times are in EDT time to prevent confusion due to time zone crossing. See the USC110 flight status page for this flight to view local times or setup timezone preferences in your user account.

Time Position Orientation Groundspeed Altitude Reporting Facility
EDT Latitude Longitude Course Direction KTS MPH feet Rate Location/Type
Fri 11:10:48 PM 41.5333 -81.7147 322° Northwest 98 113 2,100  Level Cleveland Center
Fri 11:11:49 PM 41.5497 -81.7375 314° West 94 108 3,400 1,339 Climbing Cleveland Center
Fri 11:12:49 PM 41.5683 -81.7628 315° West 83 96 4,800 1,240 Climbing Cleveland Center
Fri 11:13:50 PM 41.5783 -81.7906 296° West 88 101 5,900 1,140 Climbing Cleveland Center
Fri 11:14:50 PM 41.5906 -81.8186 300° West 86 99 7,100 1,041 Climbing Cleveland Center
Fri 11:15:51 PM 41.6006 -81.8467 295° West 91 105 8,000 590 Climbing Cleveland Center
Fri 11:16:52 PM 41.6231 -81.8886 306° West 150 173 8,300 694 Climbing Cleveland Center
Fri 11:17:52 PM 41.6350 -81.9361 289° West 118 136 9,400 843 Climbing Cleveland Center
Fri 11:18:53 PM 41.6450 -81.9753 289° West 118 136 10,000 298 Climbing Cleveland Center
Fri 11:19:53 PM 41.6611 -82.0256 293° West 147 169 10,000  Level Cleveland Center
Fri 11:20:54 PM 41.6772 -82.0761 293° West 146 168 10,000  Level Cleveland Center
Fri 11:21:55 PM 41.6931 -82.1236 294° West 145 167 10,000  Level Cleveland Center
Fri 11:22:55 PM 41.7031 -82.1683 287° West 145 167 10,000  Level Cleveland Center
Fri 11:23:55 PM 41.7169 -82.2161 291° West 150 173 10,000  Level Cleveland Center
Fri 11:24:40 PM 41.7331 -82.2583 297° West 144 166 10,000  Level Cleveland Center
Fri 11:24:55 PM 41.7328 -82.2664 267° West 150 173 10,000  Level Cleveland Center
Fri 11:25:47 PM 41.7467 -82.3142 291° West 145 167 10,000  Level Cleveland Center
Fri 11:26:48 PM 41.7647 -82.3703 293° West 148 170 10,000  Level Cleveland Center
Fri 11:27:48 PM 41.7786 -82.4181 291° West 147 169 10,000  Level Cleveland Center
Fri 11:28:49 PM 41.7964 -82.4717 294° West 146 168 10,000  Level Cleveland Center
Fri 11:29:50 PM 41.8103 -82.5219 290° West 146 168 10,000  Level Cleveland Center
Fri 11:30:50 PM 41.8258 -82.5728 292° West 148 170 10,000 -50 Level Cleveland Center
Fri 11:31:51 PM 41.8458 -82.6236 298° West 148 170 9,900  Descending Cleveland Center
Fri 11:32:52 PM 41.8831 -82.6497 332° Northwest 145 167 10,000 49 Climbing Cleveland Center
Fri 11:33:53 PM 41.9203 -82.6622 346° North 146 168 10,000 -98 Level Cleveland Center
Fri 11:34:54 PM 41.9531 -82.6939 324° Northwest 152 175 9,800 -298 Descending Cleveland Center
Fri 11:35:54 PM 41.9772 -82.7422 304° West 157 181 9,400 -446 Descending Cleveland Center
Fri 11:36:55 PM 42.0033 -82.7906 306° West 158 182 8,900 -787 Descending Cleveland Center
Fri 11:37:56 PM 42.0356 -82.8447 309° West 181 208 7,800 -942 Descending Cleveland Center
Fri 11:38:56 PM 42.0658 -82.8964 308° West 175 201 7,000 -694 Descending Cleveland Center
Fri 11:39:57 PM 42.0942 -82.9450 308° West 171 197 6,400 -639 Descending Cleveland Center
Fri 11:40:58 PM 42.1264 -82.9936 312° West 167 192 5,700 -694 Descending Cleveland Center
Fri 11:41:58 PM 42.1589 -83.0369 315° West 165 190 5,000 -347 Descending Cleveland Center
Fri 11:42:59 PM 42.1850 -83.0828 308° West 158 182 5,000  Level Cleveland Center
Fri 11:44:00 PM 42.2131 -83.1261 311° West 147 169 5,000  Level Cleveland Center
Fri 11:45:00 PM 42.2119 -83.1847 269° West 157 181 5,000  Level Cleveland Center
Fri 11:46:01 PM 42.2147 -83.2383 274° West 149 171 5,000  Level Cleveland Center
Fri 11:47:02 PM 42.2325 -83.2867 296° West 149 171 5,000  Level Cleveland Center
Fri 11:48:02 PM 42.2564 -83.3325 305° West 149 171 5,000  Level Cleveland Center
Fri 11:49:03 PM 42.2803 -83.3783 305° West 147 169 5,000 -344 Level Cleveland Center
Fri 11:50:04 PM 42.2978 -83.4325 294° West 173 199 4,300 -992 Descending Cleveland Center
Fri 11:51:04 PM 42.2800 -83.4767 241° Southwest 93 107 3,000 -1,240 Descending Cleveland Center
Fri 11:52:05 PM 42.2628 -83.4983 223° Southwest 85 98 1,800 -1,180 Descending Cleveland Center
Fri 11:54:00 PM 42.2333 -83.5167 236° Southwest  Level FlightAware Approximate
Sat 12:01:00 AM 42.2393 -83.5310 236° Southwest  Level Estimated

Login

Don't have an account? Register now (free) for customized features, flight alerts, and more!